sensor_id;sensor_type;location;lat;lon;timestamp;pressure;altitude;pressure_sealevel;temperature;humidity
73106;BME280;61559;50.476;15.588;2024-03-17T00:01:51;98111.59;;;3.68;82.90
73106;BME280;61559;50.476;15.588;2024-03-17T00:04:22;98112.39;;;3.67;82.93
73106;BME280;61559;50.476;15.588;2024-03-17T00:06:53;98117.58;;;3.67;82.93
73106;BME280;61559;50.476;15.588;2024-03-17T00:09:24;98117.67;;;3.65;83.03
73106;BME280;61559;50.476;15.588;2024-03-17T00:11:55;98122.34;;;3.62;83.20
73106;BME280;61559;50.476;15.588;2024-03-17T00:14:27;98120.58;;;3.58;83.30
73106;BME280;61559;50.476;15.588;2024-03-17T00:16:58;98123.70;;;3.52;83.34
73106;BME280;61559;50.476;15.588;2024-03-17T00:19:32;98123.63;;;3.48;83.50
73106;BME280;61559;50.476;15.588;2024-03-17T00:22:03;98122.00;;;3.45;83.45
73106;BME280;61559;50.476;15.588;2024-03-17T00:24:35;98122.75;;;3.43;83.57
73106;BME280;61559;50.476;15.588;2024-03-17T00:27:06;98119.77;;;3.40;83.78
73106;BME280;61559;50.476;15.588;2024-03-17T00:29:35;98122.85;;;3.36;83.73
73106;BME280;61559;50.476;15.588;2024-03-17T00:32:07;98128.02;;;3.33;83.90
73106;BME280;61559;50.476;15.588;2024-03-17T00:34:40;98136.25;;;3.30;84.02
73106;BME280;61559;50.476;15.588;2024-03-17T00:37:11;98138.26;;;3.27;83.96
73106;BME280;61559;50.476;15.588;2024-03-17T00:39:42;98133.77;;;3.25;84.08
73106;BME280;61559;50.476;15.588;2024-03-17T00:42:12;98135.50;;;3.25;84.12
73106;BME280;61559;50.476;15.588;2024-03-17T00:44:43;98132.80;;;3.25;84.09
73106;BME280;61559;50.476;15.588;2024-03-17T00:47:14;98135.27;;;3.24;84.16
73106;BME280;61559;50.476;15.588;2024-03-17T00:49:45;98129.45;;;3.25;84.15
73106;BME280;61559;50.476;15.588;2024-03-17T00:52:17;98129.66;;;3.27;84.05
73106;BME280;61559;50.476;15.588;2024-03-17T00:54:49;98126.96;;;3.28;83.98
73106;BME280;61559;50.476;15.588;2024-03-17T00:57:20;98127.88;;;3.27;84.02
73106;BME280;61559;50.476;15.588;2024-03-17T00:59:52;98126.20;;;3.28;84.02
73106;BME280;61559;50.476;15.588;2024-03-17T01:02:23;98127.13;;;3.29;83.95
73106;BME280;61559;50.476;15.588;2024-03-17T01:04:54;98127.95;;;3.30;84.00
73106;BME280;61559;50.476;15.588;2024-03-17T01:07:24;98127.29;;;3.31;83.98
73106;BME280;61559;50.476;15.588;2024-03-17T01:09:55;98124.70;;;3.32;84.04
73106;BME280;61559;50.476;15.588;2024-03-17T01:12:26;98125.02;;;3.32;83.85
73106;BME280;61559;50.476;15.588;2024-03-17T01:14:57;98125.05;;;3.31;84.08
73106;BME280;61559;50.476;15.588;2024-03-17T01:17:28;98126.64;;;3.25;83.80
73106;BME280;61559;50.476;15.588;2024-03-17T01:19:59;98129.81;;;3.15;83.54
73106;BME280;61559;50.476;15.588;2024-03-17T01:22:40;98131.55;;;3.03;83.72
73106;BME280;61559;50.476;15.588;2024-03-17T01:25:11;98130.88;;;2.97;84.13
73106;BME280;61559;50.476;15.588;2024-03-17T01:27:42;98135.41;;;2.92;84.04
73106;BME280;61559;50.476;15.588;2024-03-17T01:30:14;98132.98;;;2.87;84.20
73106;BME280;61559;50.476;15.588;2024-03-17T01:32:45;98138.09;;;2.84;84.29
73106;BME280;61559;50.476;15.588;2024-03-17T01:35:16;98133.81;;;2.75;84.26
73106;BME280;61559;50.476;15.588;2024-03-17T01:37:46;98131.92;;;2.67;84.26
73106;BME280;61559;50.476;15.588;2024-03-17T01:40:17;98130.93;;;2.58;84.34
73106;BME280;61559;50.476;15.588;2024-03-17T01:42:48;98127.48;;;2.52;84.52
73106;BME280;61559;50.476;15.588;2024-03-17T01:45:29;98126.08;;;2.46;84.65
73106;BME280;61559;50.476;15.588;2024-03-17T01:48:02;98126.56;;;2.39;84.54
73106;BME280;61559;50.476;15.588;2024-03-17T01:50:36;98124.05;;;2.33;84.60
73106;BME280;61559;50.476;15.588;2024-03-17T01:53:08;98122.00;;;2.28;85.19
73106;BME280;61559;50.476;15.588;2024-03-17T01:55:42;98118.11;;;2.24;85.57
73106;BME280;61559;50.476;15.588;2024-03-17T01:58:13;98119.34;;;2.22;85.53
73106;BME280;61559;50.476;15.588;2024-03-17T02:00:44;98122.55;;;2.18;85.51
73106;BME280;61559;50.476;15.588;2024-03-17T02:03:22;98121.13;;;2.09;85.17
73106;BME280;61559;50.476;15.588;2024-03-17T02:06:00;98124.89;;;2.02;85.56
73106;BME280;61559;50.476;15.588;2024-03-17T02:08:49;98128.90;;;1.97;85.79
73106;BME280;61559;50.476;15.588;2024-03-17T02:11:27;98130.33;;;1.93;85.93
73106;BME280;61559;50.476;15.588;2024-03-17T02:13:58;98130.53;;;1.90;86.05
73106;BME280;61559;50.476;15.588;2024-03-17T02:16:30;98129.84;;;1.88;86.19
73106;BME280;61559;50.476;15.588;2024-03-17T02:19:01;98134.77;;;1.84;85.99
73106;BME280;61559;50.476;15.588;2024-03-17T02:21:35;98137.63;;;1.81;86.14
73106;BME280;61559;50.476;15.588;2024-03-17T02:24:10;98138.73;;;1.77;86.14
73106;BME280;61559;50.476;15.588;2024-03-17T02:26:41;98142.27;;;1.74;86.72
73106;BME280;61559;50.476;15.588;2024-03-17T02:29:12;98138.48;;;1.80;87.70
73106;BME280;61559;50.476;15.588;2024-03-17T02:31:45;98136.15;;;1.92;87.77
73106;BME280;61559;50.476;15.588;2024-03-17T02:34:16;98138.10;;;2.02;87.54
73106;BME280;61559;50.476;15.588;2024-03-17T02:36:47;98135.01;;;2.10;87.64
73106;BME280;61559;50.476;15.588;2024-03-17T02:39:18;98127.63;;;2.22;87.68
73106;BME280;61559;50.476;15.588;2024-03-17T02:42:12;98121.73;;;2.35;87.46
73106;BME280;61559;50.476;15.588;2024-03-17T02:44:42;98124.81;;;2.42;86.95
73106;BME280;61559;50.476;15.588;2024-03-17T02:47:13;98125.66;;;2.45;86.76
73106;BME280;61559;50.476;15.588;2024-03-17T02:49:49;98124.34;;;2.45;86.83
73106;BME280;61559;50.476;15.588;2024-03-17T02:52:21;98126.11;;;2.45;86.66
73106;BME280;61559;50.476;15.588;2024-03-17T02:54:55;98132.09;;;2.43;86.56
73106;BME280;61559;50.476;15.588;2024-03-17T02:57:35;98134.88;;;2.42;86.65
73106;BME280;61559;50.476;15.588;2024-03-17T03:00:08;98135.84;;;2.41;86.46
73106;BME280;61559;50.476;15.588;2024-03-17T03:02:43;98135.52;;;2.41;86.48
73106;BME280;61559;50.476;15.588;2024-03-17T03:05:14;98140.80;;;2.40;86.46
73106;BME280;61559;50.476;15.588;2024-03-17T03:07:46;98139.73;;;2.39;86.30
73106;BME280;61559;50.476;15.588;2024-03-17T03:10:17;98141.94;;;2.37;86.37
73106;BME280;61559;50.476;15.588;2024-03-17T03:12:48;98147.45;;;2.35;86.39
73106;BME280;61559;50.476;15.588;2024-03-17T03:15:21;98144.54;;;2.33;86.45
73106;BME280;61559;50.476;15.588;2024-03-17T03:17:53;98141.31;;;2.31;86.41
73106;BME280;61559;50.476;15.588;2024-03-17T03:20:24;98136.45;;;2.28;86.23
73106;BME280;61559;50.476;15.588;2024-03-17T03:22:55;98134.02;;;2.24;86.16
73106;BME280;61559;50.476;15.588;2024-03-17T03:25:27;98135.77;;;2.19;85.82
73106;BME280;61559;50.476;15.588;2024-03-17T03:27:58;98138.00;;;2.10;85.51
73106;BME280;61559;50.476;15.588;2024-03-17T03:30:29;98138.67;;;1.99;85.48
73106;BME280;61559;50.476;15.588;2024-03-17T03:32:59;98139.26;;;1.89;85.87
73106;BME280;61559;50.476;15.588;2024-03-17T03:35:40;98143.00;;;1.80;85.84
73106;BME280;61559;50.476;15.588;2024-03-17T03:38:11;98135.84;;;1.72;85.84
73106;BME280;61559;50.476;15.588;2024-03-17T03:40:44;98136.37;;;1.66;86.23
73106;BME280;61559;50.476;15.588;2024-03-17T03:43:17;98148.73;;;1.60;86.38
73106;BME280;61559;50.476;15.588;2024-03-17T03:45:48;98145.89;;;1.54;86.59
73106;BME280;61559;50.476;15.588;2024-03-17T03:48:22;98146.61;;;1.47;86.43
73106;BME280;61559;50.476;15.588;2024-03-17T03:50:53;98142.13;;;1.40;86.45
73106;BME280;61559;50.476;15.588;2024-03-17T03:53:24;98143.80;;;1.33;86.72
73106;BME280;61559;50.476;15.588;2024-03-17T03:55:56;98144.74;;;1.22;86.78
73106;BME280;61559;50.476;15.588;2024-03-17T03:58:27;98148.71;;;1.10;86.88
73106;BME280;61559;50.476;15.588;2024-03-17T04:00:58;98156.52;;;1.05;87.11
73106;BME280;61559;50.476;15.588;2024-03-17T04:03:31;98162.80;;;1.00;87.25
73106;BME280;61559;50.476;15.588;2024-03-17T04:06:06;98160.59;;;0.95;87.20
73106;BME280;61559;50.476;15.588;2024-03-17T04:08:38;98164.78;;;0.94;87.98
73106;BME280;61559;50.476;15.588;2024-03-17T04:11:10;98167.80;;;0.96;87.90
73106;BME280;61559;50.476;15.588;2024-03-17T04:13:41;98164.51;;;0.96;87.58
73106;BME280;61559;50.476;15.588;2024-03-17T04:16:12;98164.69;;;0.95;87.56
73106;BME280;61559;50.476;15.588;2024-03-17T04:18:43;98164.84;;;0.89;87.44
73106;BME280;61559;50.476;15.588;2024-03-17T04:21:14;98161.77;;;0.83;87.38
73106;BME280;61559;50.476;15.588;2024-03-17T04:23:44;98166.54;;;0.83;87.81
73106;BME280;61559;50.476;15.588;2024-03-17T04:26:15;98166.56;;;0.82;87.85
73106;BME280;61559;50.476;15.588;2024-03-17T04:28:45;98160.70;;;0.84;87.87
73106;BME280;61559;50.476;15.588;2024-03-17T04:31:15;98154.86;;;0.85;87.96
73106;BME280;61559;50.476;15.588;2024-03-17T04:33:47;98156.64;;;0.86;88.16
73106;BME280;61559;50.476;15.588;2024-03-17T04:36:18;98157.89;;;0.84;87.87
73106;BME280;61559;50.476;15.588;2024-03-17T04:38:49;98158.30;;;0.81;87.81
73106;BME280;61559;50.476;15.588;2024-03-17T04:41:20;98154.29;;;0.79;87.77
73106;BME280;61559;50.476;15.588;2024-03-17T04:43:51;98152.77;;;0.76;87.85
73106;BME280;61559;50.476;15.588;2024-03-17T04:46:21;98151.29;;;0.73;87.87
73106;BME280;61559;50.476;15.588;2024-03-17T04:48:52;98150.81;;;0.70;88.07
73106;BME280;61559;50.476;15.588;2024-03-17T04:51:23;98157.52;;;0.66;87.74
73106;BME280;61559;50.476;15.588;2024-03-17T04:53:54;98157.96;;;0.63;87.66
73106;BME280;61559;50.476;15.588;2024-03-17T04:56:26;98161.05;;;0.60;87.78
73106;BME280;61559;50.476;15.588;2024-03-17T04:58:56;98165.66;;;0.54;87.47
73106;BME280;61559;50.476;15.588;2024-03-17T05:01:27;98165.28;;;0.51;87.73
73106;BME280;61559;50.476;15.588;2024-03-17T05:04:00;98167.21;;;0.49;87.70
73106;BME280;61559;50.476;15.588;2024-03-17T05:06:51;98166.48;;;0.45;87.69
73106;BME280;61559;50.476;15.588;2024-03-17T05:09:22;98169.03;;;0.43;87.51
73106;BME280;61559;50.476;15.588;2024-03-17T05:11:53;98173.30;;;0.42;87.68
73106;BME280;61559;50.476;15.588;2024-03-17T05:14:24;98178.05;;;0.41;87.74
73106;BME280;61559;50.476;15.588;2024-03-17T05:16:55;98176.71;;;0.37;87.55
73106;BME280;61559;50.476;15.588;2024-03-17T05:19:27;98182.84;;;0.32;87.71
73106;BME280;61559;50.476;15.588;2024-03-17T05:21:58;98187.36;;;0.30;88.02
73106;BME280;61559;50.476;15.588;2024-03-17T05:24:32;98192.20;;;0.29;88.06
73106;BME280;61559;50.476;15.588;2024-03-17T05:27:04;98197.80;;;0.28;88.01
73106;BME280;61559;50.476;15.588;2024-03-17T05:29:35;98192.48;;;0.27;88.07
73106;BME280;61559;50.476;15.588;2024-03-17T05:32:06;98196.29;;;0.26;87.83
73106;BME280;61559;50.476;15.588;2024-03-17T05:34:48;98196.99;;;0.23;88.04
73106;BME280;61559;50.476;15.588;2024-03-17T05:37:46;98200.63;;;0.25;88.29
73106;BME280;61559;50.476;15.588;2024-03-17T05:40:32;98200.27;;;0.25;88.05
73106;BME280;61559;50.476;15.588;2024-03-17T05:43:18;98201.79;;;0.27;88.16
73106;BME280;61559;50.476;15.588;2024-03-17T05:45:48;98203.30;;;0.28;88.31
73106;BME280;61559;50.476;15.588;2024-03-17T05:48:19;98205.98;;;0.31;88.45
73106;BME280;61559;50.476;15.588;2024-03-17T05:50:50;98211.25;;;0.34;88.52
73106;BME280;61559;50.476;15.588;2024-03-17T05:53:22;98208.80;;;0.38;88.63
73106;BME280;61559;50.476;15.588;2024-03-17T05:55:54;98208.25;;;0.43;88.71
73106;BME280;61559;50.476;15.588;2024-03-17T05:58:25;98207.36;;;0.49;88.80
73106;BME280;61559;50.476;15.588;2024-03-17T06:00:56;98205.34;;;0.55;88.72
73106;BME280;61559;50.476;15.588;2024-03-17T06:03:27;98202.52;;;0.60;88.64
73106;BME280;61559;50.476;15.588;2024-03-17T06:05:59;98203.64;;;0.66;88.65
73106;BME280;61559;50.476;15.588;2024-03-17T06:08:32;98206.89;;;0.72;88.71
73106;BME280;61559;50.476;15.588;2024-03-17T06:11:04;98207.30;;;0.75;88.58
73106;BME280;61559;50.476;15.588;2024-03-17T06:13:35;98210.23;;;0.75;88.36
73106;BME280;61559;50.476;15.588;2024-03-17T06:16:07;98212.75;;;0.71;88.44
73106;BME280;61559;50.476;15.588;2024-03-17T06:18:38;98213.09;;;0.70;88.56
73106;BME280;61559;50.476;15.588;2024-03-17T06:21:09;98214.47;;;0.74;88.86
73106;BME280;61559;50.476;15.588;2024-03-17T06:23:41;98213.17;;;0.77;89.11
73106;BME280;61559;50.476;15.588;2024-03-17T06:26:14;98217.86;;;0.83;89.25
73106;BME280;61559;50.476;15.588;2024-03-17T06:28:45;98216.68;;;0.90;89.40
73106;BME280;61559;50.476;15.588;2024-03-17T06:31:16;98213.84;;;0.98;89.62
73106;BME280;61559;50.476;15.588;2024-03-17T06:33:47;98215.81;;;1.04;89.54
73106;BME280;61559;50.476;15.588;2024-03-17T06:36:18;98219.77;;;1.10;89.66
73106;BME280;61559;50.476;15.588;2024-03-17T06:38:49;98218.85;;;1.20;90.17
73106;BME280;61559;50.476;15.588;2024-03-17T06:41:20;98214.98;;;1.32;90.39
73106;BME280;61559;50.476;15.588;2024-03-17T06:43:51;98217.05;;;1.47;90.67
73106;BME280;61559;50.476;15.588;2024-03-17T06:46:22;98217.86;;;1.61;90.41
73106;BME280;61559;50.476;15.588;2024-03-17T06:48:53;98219.45;;;1.74;90.52
73106;BME280;61559;50.476;15.588;2024-03-17T06:51:28;98222.87;;;1.89;90.36
73106;BME280;61559;50.476;15.588;2024-03-17T06:54:00;98217.58;;;2.10;90.13
73106;BME280;61559;50.476;15.588;2024-03-17T06:56:35;98216.29;;;2.35;88.86
73106;BME280;61559;50.476;15.588;2024-03-17T06:59:08;98219.02;;;2.59;87.87
73106;BME280;61559;50.476;15.588;2024-03-17T07:01:39;98215.11;;;2.79;87.50
73106;BME280;61559;50.476;15.588;2024-03-17T07:04:10;98217.40;;;2.99;85.69
73106;BME280;61559;50.476;15.588;2024-03-17T07:06:41;98218.90;;;3.16;85.36
73106;BME280;61559;50.476;15.588;2024-03-17T07:09:12;98223.32;;;3.31;84.79
73106;BME280;61559;50.476;15.588;2024-03-17T07:11:43;98222.92;;;3.45;84.15
73106;BME280;61559;50.476;15.588;2024-03-17T07:14:15;98227.14;;;3.58;83.42
73106;BME280;61559;50.476;15.588;2024-03-17T07:16:45;98228.96;;;3.69;82.55
73106;BME280;61559;50.476;15.588;2024-03-17T07:19:16;98230.05;;;3.79;81.51
73106;BME280;61559;50.476;15.588;2024-03-17T07:21:47;98228.86;;;3.90;80.19
73106;BME280;61559;50.476;15.588;2024-03-17T07:24:17;98232.74;;;3.99;79.55
73106;BME280;61559;50.476;15.588;2024-03-17T07:26:50;98234.06;;;4.05;80.29
73106;BME280;61559;50.476;15.588;2024-03-17T07:29:21;98231.70;;;4.12;79.14
73106;BME280;61559;50.476;15.588;2024-03-17T07:31:52;98232.49;;;4.15;78.24
73106;BME280;61559;50.476;15.588;2024-03-17T07:34:22;98240.96;;;4.17;76.60
73106;BME280;61559;50.476;15.588;2024-03-17T07:36:52;98238.89;;;4.18;76.28
73106;BME280;61559;50.476;15.588;2024-03-17T07:39:23;98244.38;;;4.24;76.81
73106;BME280;61559;50.476;15.588;2024-03-17T07:41:56;98248.48;;;4.31;76.24
73106;BME280;61559;50.476;15.588;2024-03-17T07:44:27;98249.98;;;4.39;75.76
73106;BME280;61559;50.476;15.588;2024-03-17T07:47:03;98244.22;;;4.47;74.70
73106;BME280;61559;50.476;15.588;2024-03-17T07:49:38;98244.30;;;4.54;73.77
73106;BME280;61559;50.476;15.588;2024-03-17T07:52:09;98240.24;;;4.60;72.36
73106;BME280;61559;50.476;15.588;2024-03-17T07:54:40;98242.00;;;4.65;71.56
73106;BME280;61559;50.476;15.588;2024-03-17T07:57:11;98239.94;;;4.71;71.26
73106;BME280;61559;50.476;15.588;2024-03-17T07:59:42;98238.21;;;4.76;71.87
73106;BME280;61559;50.476;15.588;2024-03-17T08:02:13;98242.63;;;4.84;72.55
73106;BME280;61559;50.476;15.588;2024-03-17T08:04:44;98240.92;;;4.92;72.12
73106;BME280;61559;50.476;15.588;2024-03-17T08:07:15;98253.91;;;5.00;72.40
73106;BME280;61559;50.476;15.588;2024-03-17T08:09:46;98252.45;;;5.06;70.52
73106;BME280;61559;50.476;15.588;2024-03-17T08:12:16;98254.11;;;5.11;69.80
73106;BME280;61559;50.476;15.588;2024-03-17T08:14:50;98249.94;;;5.19;70.72
73106;BME280;61559;50.476;15.588;2024-03-17T08:17:21;98243.54;;;5.26;70.34
73106;BME280;61559;50.476;15.588;2024-03-17T08:19:52;98248.09;;;5.31;69.45
73106;BME280;61559;50.476;15.588;2024-03-17T08:22:24;98249.02;;;5.32;67.44
73106;BME280;61559;50.476;15.588;2024-03-17T08:24:54;98239.88;;;5.33;68.16
73106;BME280;61559;50.476;15.588;2024-03-17T08:27:25;98242.77;;;5.33;65.98
73106;BME280;61559;50.476;15.588;2024-03-17T08:29:57;98234.30;;;5.33;65.98
73106;BME280;61559;50.476;15.588;2024-03-17T08:32:28;98248.67;;;5.39;65.05
73106;BME280;61559;50.476;15.588;2024-03-17T08:34:59;98249.70;;;5.47;64.44
73106;BME280;61559;50.476;15.588;2024-03-17T08:37:32;98238.55;;;5.50;62.34
73106;BME280;61559;50.476;15.588;2024-03-17T08:40:09;98231.42;;;5.55;64.35
73106;BME280;61559;50.476;15.588;2024-03-17T08:42:40;98236.78;;;5.62;65.10
73106;BME280;61559;50.476;15.588;2024-03-17T08:45:12;98237.96;;;5.69;65.11
73106;BME280;61559;50.476;15.588;2024-03-17T08:47:43;98236.17;;;5.75;64.79
73106;BME280;61559;50.476;15.588;2024-03-17T08:50:14;98232.02;;;5.82;65.26
73106;BME280;61559;50.476;15.588;2024-03-17T08:52:46;98229.93;;;5.87;64.71
73106;BME280;61559;50.476;15.588;2024-03-17T08:55:16;98235.56;;;5.83;63.70
73106;BME280;61559;50.476;15.588;2024-03-17T08:57:46;98237.70;;;5.75;64.32
73106;BME280;61559;50.476;15.588;2024-03-17T09:00:18;98229.52;;;5.75;63.62
73106;BME280;61559;50.476;15.588;2024-03-17T09:02:55;98229.02;;;5.76;63.94
73106;BME280;61559;50.476;15.588;2024-03-17T09:05:25;98227.48;;;5.77;65.24
73106;BME280;61559;50.476;15.588;2024-03-17T09:07:56;98231.31;;;5.79;65.46
73106;BME280;61559;50.476;15.588;2024-03-17T09:10:27;98234.73;;;5.83;63.48
73106;BME280;61559;50.476;15.588;2024-03-17T09:13:00;98224.52;;;5.80;62.21
73106;BME280;61559;50.476;15.588;2024-03-17T09:15:32;98226.71;;;5.80;63.34
73106;BME280;61559;50.476;15.588;2024-03-17T09:18:02;98227.43;;;5.88;62.75
73106;BME280;61559;50.476;15.588;2024-03-17T09:20:32;98232.09;;;6.00;63.04
73106;BME280;61559;50.476;15.588;2024-03-17T09:23:03;98231.95;;;6.08;62.78
73106;BME280;61559;50.476;15.588;2024-03-17T09:25:33;98223.24;;;6.17;61.96
73106;BME280;61559;50.476;15.588;2024-03-17T09:28:05;98218.21;;;6.25;62.51
73106;BME280;61559;50.476;15.588;2024-03-17T09:30:37;98212.70;;;6.34;63.23
73106;BME280;61559;50.476;15.588;2024-03-17T09:33:09;98212.23;;;6.42;61.47
73106;BME280;61559;50.476;15.588;2024-03-17T09:35:39;98219.12;;;6.46;60.80
73106;BME280;61559;50.476;15.588;2024-03-17T09:38:10;98226.42;;;6.51;60.50
73106;BME280;61559;50.476;15.588;2024-03-17T09:40:48;98218.48;;;6.55;60.61
73106;BME280;61559;50.476;15.588;2024-03-17T09:43:24;98220.58;;;6.55;59.87
73106;BME280;61559;50.476;15.588;2024-03-17T09:45:55;98217.48;;;6.61;60.20
73106;BME280;61559;50.476;15.588;2024-03-17T09:48:29;98223.08;;;6.70;60.11
73106;BME280;61559;50.476;15.588;2024-03-17T09:51:02;98212.79;;;6.81;59.75
73106;BME280;61559;50.476;15.588;2024-03-17T09:53:35;98205.88;;;6.89;58.45
73106;BME280;61559;50.476;15.588;2024-03-17T09:56:10;98206.65;;;7.03;59.42
73106;BME280;61559;50.476;15.588;2024-03-17T09:58:41;98203.45;;;7.16;60.27
73106;BME280;61559;50.476;15.588;2024-03-17T10:01:12;98212.38;;;7.22;58.60
73106;BME280;61559;50.476;15.588;2024-03-17T10:03:48;98204.52;;;7.16;57.35
73106;BME280;61559;50.476;15.588;2024-03-17T10:06:21;98202.78;;;7.07;58.25
73106;BME280;61559;50.476;15.588;2024-03-17T10:08:53;98204.64;;;7.05;57.43
73106;BME280;61559;50.476;15.588;2024-03-17T10:11:25;98204.35;;;7.02;56.81
73106;BME280;61559;50.476;15.588;2024-03-17T10:14:03;98193.30;;;7.00;57.55
73106;BME280;61559;50.476;15.588;2024-03-17T10:16:37;98198.02;;;7.00;57.12
73106;BME280;61559;50.476;15.588;2024-03-17T10:19:10;98193.05;;;7.00;58.04
73106;BME280;61559;50.476;15.588;2024-03-17T10:21:42;98185.40;;;7.02;57.92
73106;BME280;61559;50.476;15.588;2024-03-17T10:24:19;98191.36;;;7.07;57.69
73106;BME280;61559;50.476;15.588;2024-03-17T10:26:50;98196.55;;;7.06;56.21
73106;BME280;61559;50.476;15.588;2024-03-17T10:29:24;98191.22;;;7.05;56.53
73106;BME280;61559;50.476;15.588;2024-03-17T10:31:56;98186.47;;;7.11;57.05
73106;BME280;61559;50.476;15.588;2024-03-17T10:34:28;98184.29;;;7.24;58.62
73106;BME280;61559;50.476;15.588;2024-03-17T10:37:13;98187.20;;;7.39;56.70
73106;BME280;61559;50.476;15.588;2024-03-17T10:39:46;98185.13;;;7.49;56.85
73106;BME280;61559;50.476;15.588;2024-03-17T10:42:24;98184.23;;;7.58;57.39
73106;BME280;61559;50.476;15.588;2024-03-17T10:44:55;98184.30;;;7.63;56.11
73106;BME280;61559;50.476;15.588;2024-03-17T10:47:27;98184.42;;;7.61;55.37
73106;BME280;61559;50.476;15.588;2024-03-17T10:49:59;98184.79;;;7.59;56.11
73106;BME280;61559;50.476;15.588;2024-03-17T10:52:35;98183.93;;;7.57;54.86
73106;BME280;61559;50.476;15.588;2024-03-17T10:55:23;98177.28;;;7.55;54.87
73106;BME280;61559;50.476;15.588;2024-03-17T10:57:55;98181.33;;;7.57;55.03
73106;BME280;61559;50.476;15.588;2024-03-17T11:00:27;98181.48;;;7.56;54.50
73106;BME280;61559;50.476;15.588;2024-03-17T11:03:01;98180.09;;;7.51;54.31
73106;BME280;61559;50.476;15.588;2024-03-17T11:05:38;98173.50;;;7.47;54.49
73106;BME280;61559;50.476;15.588;2024-03-17T11:08:16;98172.25;;;7.43;54.07
73106;BME280;61559;50.476;15.588;2024-03-17T11:11:01;98178.36;;;7.43;53.57
73106;BME280;61559;50.476;15.588;2024-03-17T11:13:35;98171.91;;;7.40;54.08
73106;BME280;61559;50.476;15.588;2024-03-17T11:16:26;98169.11;;;7.40;54.00
73106;BME280;61559;50.476;15.588;2024-03-17T11:19:06;98170.53;;;7.41;53.45
73106;BME280;61559;50.476;15.588;2024-03-17T11:21:37;98168.98;;;7.42;53.25
73106;BME280;61559;50.476;15.588;2024-03-17T11:24:20;98162.59;;;7.47;53.69
73106;BME280;61559;50.476;15.588;2024-03-17T11:26:51;98166.63;;;7.49;53.67
73106;BME280;61559;50.476;15.588;2024-03-17T11:29:29;98167.04;;;7.47;53.49
73106;BME280;61559;50.476;15.588;2024-03-17T11:32:28;98163.39;;;7.49;54.92
73106;BME280;61559;50.476;15.588;2024-03-17T11:35:16;98165.40;;;7.54;54.88
73106;BME280;61559;50.476;15.588;2024-03-17T11:37:54;98160.11;;;7.55;54.72
73106;BME280;61559;50.476;15.588;2024-03-17T11:40:28;98165.42;;;7.52;55.07
73106;BME280;61559;50.476;15.588;2024-03-17T11:43:05;98162.39;;;7.47;54.54
73106;BME280;61559;50.476;15.588;2024-03-17T11:45:37;98163.56;;;7.40;52.53
73106;BME280;61559;50.476;15.588;2024-03-17T11:48:13;98162.13;;;7.40;53.63
73106;BME280;61559;50.476;15.588;2024-03-17T11:50:47;98160.80;;;7.52;52.60
73106;BME280;61559;50.476;15.588;2024-03-17T11:53:18;98155.43;;;7.57;52.40
73106;BME280;61559;50.476;15.588;2024-03-17T11:55:56;98154.48;;;7.61;52.89
73106;BME280;61559;50.476;15.588;2024-03-17T11:58:25;98153.86;;;7.60;52.65
73106;BME280;61559;50.476;15.588;2024-03-17T12:00:56;98150.02;;;7.55;52.61
73106;BME280;61559;50.476;15.588;2024-03-17T12:03:27;98146.70;;;7.52;52.87
73106;BME280;61559;50.476;15.588;2024-03-17T12:06:00;98139.93;;;7.53;54.06
73106;BME280;61559;50.476;15.588;2024-03-17T12:08:36;98139.88;;;7.53;53.01
73106;BME280;61559;50.476;15.588;2024-03-17T12:11:17;98135.27;;;7.53;53.47
73106;BME280;61559;50.476;15.588;2024-03-17T12:13:48;98133.52;;;7.53;52.75
73106;BME280;61559;50.476;15.588;2024-03-17T12:16:19;98130.84;;;7.55;52.46
73106;BME280;61559;50.476;15.588;2024-03-17T12:19:09;98118.73;;;7.62;53.01
73106;BME280;61559;50.476;15.588;2024-03-17T12:21:42;98118.23;;;7.70;52.78
73106;BME280;61559;50.476;15.588;2024-03-17T12:24:17;98112.54;;;7.80;52.75
73106;BME280;61559;50.476;15.588;2024-03-17T12:26:49;98111.77;;;7.83;52.71
73106;BME280;61559;50.476;15.588;2024-03-17T12:29:25;98105.43;;;7.86;53.32
73106;BME280;61559;50.476;15.588;2024-03-17T12:31:58;98098.69;;;7.88;53.08
73106;BME280;61559;50.476;15.588;2024-03-17T12:34:34;98106.80;;;7.87;52.84
73106;BME280;61559;50.476;15.588;2024-03-17T12:37:05;98104.77;;;7.82;52.28
73106;BME280;61559;50.476;15.588;2024-03-17T12:39:36;98105.73;;;7.82;52.88
73106;BME280;61559;50.476;15.588;2024-03-17T12:42:12;98105.29;;;7.85;53.12
73106;BME280;61559;50.476;15.588;2024-03-17T12:44:50;98102.42;;;7.85;52.52
73106;BME280;61559;50.476;15.588;2024-03-17T12:47:22;98102.27;;;7.85;52.78
73106;BME280;61559;50.476;15.588;2024-03-17T12:49:54;98099.78;;;7.87;52.92
73106;BME280;61559;50.476;15.588;2024-03-17T12:52:26;98101.67;;;7.92;53.03
73106;BME280;61559;50.476;15.588;2024-03-17T12:55:02;98098.89;;;7.93;53.04
73106;BME280;61559;50.476;15.588;2024-03-17T12:57:52;98092.36;;;7.94;52.84
73106;BME280;61559;50.476;15.588;2024-03-17T13:00:58;98090.28;;;8.02;53.00
73106;BME280;61559;50.476;15.588;2024-03-17T13:03:33;98081.23;;;8.09;51.50
73106;BME280;61559;50.476;15.588;2024-03-17T13:06:06;98083.90;;;8.16;51.31
73106;BME280;61559;50.476;15.588;2024-03-17T13:08:39;98080.61;;;8.25;50.74
73106;BME280;61559;50.476;15.588;2024-03-17T13:11:10;98076.08;;;8.36;49.41
73106;BME280;61559;50.476;15.588;2024-03-17T13:13:39;98072.27;;;8.49;50.48
73106;BME280;61559;50.476;15.588;2024-03-17T13:16:11;98071.71;;;8.60;50.79
73106;BME280;61559;50.476;15.588;2024-03-17T13:18:47;98069.61;;;8.72;50.75
73106;BME280;61559;50.476;15.588;2024-03-17T13:21:18;98060.73;;;8.85;50.79
73106;BME280;61559;50.476;15.588;2024-03-17T13:23:52;98054.06;;;8.98;49.39
73106;BME280;61559;50.476;15.588;2024-03-17T13:26:23;98059.56;;;9.04;49.17
73106;BME280;61559;50.476;15.588;2024-03-17T13:28:54;98069.14;;;8.99;47.72
73106;BME280;61559;50.476;15.588;2024-03-17T13:31:25;98062.78;;;8.88;47.07